Observation data for Northwest Lubbock on 09/12/2017      Previous  Date  Next       Current Mesonet Observations  Soil Data  Daily Summary Page  Observations in Plain Language
KLBW 120500Z 13005KT 21/09 A3014 RMK A01 T02130092  RH  047%=      5-min Rain = 0
KLBW 120505Z 13006KT 22/09 A3014 RMK A01 T02160090  RH  046%=      5-min Rain = 0
KLBW 120510Z 12006KT 22/09 A3014 RMK A01 T02190089  RH  045%=      5-min Rain = 0
KLBW 120515Z 12006KT 22/09 A3013 RMK A01 T02190089  RH  045%=      5-min Rain = 0
KLBW 120520Z 12006KT 22/09 A3013 RMK A01 T02190088  RH  044%=      5-min Rain = 0
KLBW 120525Z 12005KT 22/09 A3013 RMK A01 T02180089  RH  045%=      5-min Rain = 0
KLBW 120530Z 13006KT 22/09 A3013 RMK A01 T02160090  RH  046%=      5-min Rain = 0
KLBW 120535Z 13005KT 22/09 A3013 RMK A01 T02150090  RH  046%=      5-min Rain = 0
KLBW 120540Z 13005KT 21/09 A3013 RMK A01 T02120090  RH  047%=      5-min Rain = 0
KLBW 120545Z 13006KT 21/09 A3013 RMK A01 T02120090  RH  047%=      5-min Rain = 0
KLBW 120550Z 12006KT 21/09 A3013 RMK A01 T02120090  RH  047%=      5-min Rain = 0
KLBW 120555Z 12006KT 21/09 A3013 RMK A01 T02110089  RH  047%=      5-min Rain = 0
KLBW 120600Z 12006KT 21/09 A3013 RMK A01 T02120090  RH  047%=      5-min Rain = 0
KLBW 120605Z 13005KT 21/09 A3013 RMK A01 T02100091  RH  048%=      5-min Rain = 0
KLBW 120610Z 13004KT 21/09 A3013 RMK A01 T02080090  RH  048%=      5-min Rain = 0
KLBW 120615Z 13004KT 20/09 A3013 RMK A01 T02040090  RH  050%=      5-min Rain = 0
KLBW 120620Z 13004KT 20/09 A3012 RMK A01 T02000090  RH  050%=      5-min Rain = 0
KLBW 120625Z 13005KT 20/09 A3012 RMK A01 T01990089  RH  051%=      5-min Rain = 0
KLBW 120630Z 13006KT 20/09 A3012 RMK A01 T02010088  RH  050%=      5-min Rain = 0
KLBW 120635Z 13005KT 20/09 A3012 RMK A01 T02020089  RH  050%=      5-min Rain = 0
KLBW 120640Z 13005KT 20/09 A3012 RMK A01 T02010089  RH  050%=      5-min Rain = 0
KLBW 120645Z 13005KT 20/09 A3012 RMK A01 T02000089  RH  050%=      5-min Rain = 0
KLBW 120650Z 14005KT 20/09 A3012 RMK A01 T02000088  RH  050%=      5-min Rain = 0
KLBW 120655Z 13005KT 20/09 A3012 RMK A01 T02000088  RH  050%=      5-min Rain = 0
KLBW 120700Z 13004KT 20/09 A3012 RMK A01 T01980089  RH  051%=      5-min Rain = 0
KLBW 120705Z 13004KT 20/09 A3012 RMK A01 T01960089  RH  051%=      5-min Rain = 0
KLBW 120710Z 13004KT 19/09 A3011 RMK A01 T01940089  RH  052%=      5-min Rain = 0
KLBW 120715Z 13004KT 19/09 A3011 RMK A01 T01920089  RH  053%=      5-min Rain = 0
KLBW 120720Z 13005KT 19/09 A3011 RMK A01 T01900089  RH  053%=      5-min Rain = 0
KLBW 120725Z 13004KT 19/09 A3011 RMK A01 T01900089  RH  054%=      5-min Rain = 0
KLBW 120730Z 13005KT 19/09 A3011 RMK A01 T01900089  RH  054%=      5-min Rain = 0
KLBW 120735Z 14005KT 19/09 A3011 RMK A01 T01890088  RH  054%=      5-min Rain = 0
KLBW 120740Z 14005KT 19/09 A3011 RMK A01 T01890089  RH  054%=      5-min Rain = 0
KLBW 120745Z 14004KT 19/09 A3011 RMK A01 T01900088  RH  053%=      5-min Rain = 0
KLBW 120750Z 14004KT 19/09 A3011 RMK A01 T01900087  RH  053%=      5-min Rain = 0
KLBW 120755Z 15004KT 19/09 A3011 RMK A01 T01890086  RH  053%=      5-min Rain = 0
KLBW 120800Z 16004KT 19/09 A301 RMK A01 T01890086  RH  053%=      5-min Rain = 0
KLBW 120805Z 16004KT 19/09 A301 RMK A01 T01870086  RH  053%=      5-min Rain = 0
KLBW 120810Z 15003KT 19/09 A301 RMK A01 T01850086  RH  054%=      5-min Rain = 0
KLBW 120815Z 13003KT 18/09 A301 RMK A01 T01820087  RH  055%=      5-min Rain = 0
KLBW 120820Z 14004KT 18/09 A301 RMK A01 T01790088  RH  057%=      5-min Rain = 0
KLBW 120825Z 14003KT 18/09 A301 RMK A01 T01790088  RH  057%=      5-min Rain = 0
KLBW 120830Z 15003KT 18/09 A301 RMK A01 T01790089  RH  057%=      5-min Rain = 0
KLBW 120835Z 14003KT 18/09 A301 RMK A01 T01780089  RH  058%=      5-min Rain = 0
KLBW 120840Z 16003KT 18/09 A301 RMK A01 T01750088  RH  058%=      5-min Rain = 0
KLBW 120845Z 19003KT 17/09 A301 RMK A01 T01710087  RH  059%=      5-min Rain = 0
KLBW 120850Z 19003KT 16/09 A301 RMK A01 T01640089  RH  063%=      5-min Rain = 0
KLBW 120855Z 18003KT 16/09 A301 RMK A01 T01600088  RH  064%=      5-min Rain = 0
KLBW 120900Z 18003KT 16/09 A301 RMK A01 T01580089  RH  065%=      5-min Rain = 0
KLBW 120905Z 19002KT 15/09 A301 RMK A01 T01530092  RH  069%=      5-min Rain = 0
KLBW 120910Z 20002KT 15/09 A301 RMK A01 T01490092  RH  071%=      5-min Rain = 0
KLBW 120915Z 20002KT 15/09 A301 RMK A01 T01450091  RH  072%=      5-min Rain = 0
KLBW 120920Z 22002KT 15/09 A3009 RMK A01 T01490093  RH  071%=      5-min Rain = 0
KLBW 120925Z 25003KT 15/09 A3009 RMK A01 T01490092  RH  071%=      5-min Rain = 0
KLBW 120930Z 27003KT 15/09 A3009 RMK A01 T01520091  RH  069%=      5-min Rain = 0
KLBW 120935Z 31002KT 16/09 A3009 RMK A01 T01550091  RH  068%=      5-min Rain = 0
KLBW 120940Z 33003KT 16/09 A3009 RMK A01 T01570091  RH  067%=      5-min Rain = 0
KLBW 120945Z 33004KT 16/10 A3009 RMK A01 T01560095  RH  069%=      5-min Rain = 0
KLBW 120950Z 32003KT 15/10 A3009 RMK A01 T01540096  RH  071%=      5-min Rain = 0
KLBW 120955Z 31003KT 15/10 A3009 RMK A01 T01520097  RH  072%=      5-min Rain = 0
KLBW 121000Z 30003KT 15/10 A3009 RMK A01 T01510097  RH  072%=      5-min Rain = 0
KLBW 121005Z 30002KT 15/10 A3009 RMK A01 T01480096  RH  073%=      5-min Rain = 0
KLBW 121010Z 30002KT 15/10 A3009 RMK A01 T01460097  RH  075%=      5-min Rain = 0
KLBW 121015Z 30002KT 15/10 A3009 RMK A01 T01460099  RH  076%=      5-min Rain = 0
KLBW 121020Z 31002KT 15/10 A3009 RMK A01 T01450097  RH  076%=      5-min Rain = 0
KLBW 121025Z 31001KT 14/10 A3009 RMK A01 T01420095  RH  076%=      5-min Rain = 0
KLBW 121030Z 31001KT 14/09 A3009 RMK A01 T01390093  RH  076%=      5-min Rain = 0
KLBW 121035Z 32002KT 14/10 A3009 RMK A01 T01370097  RH  080%=      5-min Rain = 0
KLBW 121040Z 33003KT 14/11 A3009 RMK A01 T01410105  RH  082%=      5-min Rain = 0
KLBW 121045Z 33003KT 14/11 A3009 RMK A01 T01420105  RH  081%=      5-min Rain = 0
KLBW 121050Z 33002KT 14/10 A3009 RMK A01 T01420103  RH  080%=      5-min Rain = 0
KLBW 121055Z 32002KT 14/10 A3009 RMK A01 T01410103  RH  080%=      5-min Rain = 0
KLBW 121100Z 32003KT 14/11 A3009 RMK A01 T01400105  RH  082%=      5-min Rain = 0
KLBW 121105Z 32003KT 14/11 A3009 RMK A01 T01410106  RH  082%=      5-min Rain = 0
KLBW 121110Z 32003KT 14/11 A3009 RMK A01 T01400105  RH  082%=      5-min Rain = 0
KLBW 121115Z 33002KT 14/10 A3009 RMK A01 T01390104  RH  082%=      5-min Rain = 0
KLBW 121120Z 32003KT 14/11 A3009 RMK A01 T01410106  RH  082%=      5-min Rain = 0
KLBW 121125Z 32002KT 14/10 A3009 RMK A01 T01390104  RH  082%=      5-min Rain = 0
KLBW 121130Z 32003KT 14/10 A3009 RMK A01 T01370104  RH  083%=      5-min Rain = 0
KLBW 121135Z 31002KT 14/11 A3009 RMK A01 T01370105  RH  084%=      5-min Rain = 0
KLBW 121140Z 31002KT 14/11 A3009 RMK A01 T01380106  RH  083%=      5-min Rain = 0
KLBW 121145Z 32001KT 14/10 A3009 RMK A01 T01370104  RH  083%=      5-min Rain = 0
KLBW 121150Z 32000KT 13/10 A3009 RMK A01 T01320103  RH  086%=      5-min Rain = 0
KLBW 121155Z 01000KT 13/10 A3009 RMK A01 T01280102  RH  087%=      5-min Rain = 0
KLBW 121200Z 03002KT 13/11 A3009 RMK A01 T01270105  RH  089%=      5-min Rain = 0
KLBW 121205Z 03001KT 13/11 A3009 RMK A01 T01250105  RH  090%=      5-min Rain = 0
KLBW 121210Z 03001KT 12/11 A3009 RMK A01 T01230105  RH  091%=      5-min Rain = 0
KLBW 121215Z 03000KT 12/10 A3009 RMK A01 T01200103  RH  093%=      5-min Rain = 0
KLBW 121220Z 00000KT 12/10 A3009 RMK A01 T01180103  RH  094%=      5-min Rain = 0
KLBW 121225Z 00000KT 12/10 A3009 RMK A01 T01170102  RH  094%=      5-min Rain = 0
KLBW 121230Z 03000KT 12/10 A3009 RMK A01 T01170104  RH  095%=      5-min Rain = 0
KLBW 121235Z 03000KT 12/11 A3009 RMK A01 T01160105  RH  096%=      5-min Rain = 0
KLBW 121240Z 03000KT 12/11 A3009 RMK A01 T01160105  RH  097%=      5-min Rain = 0
KLBW 121245Z 32000KT 12/11 A3009 RMK A01 T01180108  RH  097%=      5-min Rain = 0
KLBW 121250Z 32001KT 12/11 A3009 RMK A01 T01240113  RH  096%=      5-min Rain = 0
KLBW 121255Z 32001KT 13/11 A3009 RMK A01 T01280112  RH  093%=      5-min Rain = 0
KLBW 121300Z 32002KT 13/11 A301 RMK A01 T01320113  RH  091%=      5-min Rain = 0
KLBW 121305Z 32002KT 14/11 A301 RMK A01 T01410114  RH  087%=      5-min Rain = 0
KLBW 121310Z 32002KT 15/12 A301 RMK A01 T01470115  RH  084%=      5-min Rain = 0
KLBW 121315Z 33002KT 15/12 A301 RMK A01 T01530115  RH  081%=      5-min Rain = 0
KLBW 121320Z 33001KT 16/12 A301 RMK A01 T01600115  RH  078%=      5-min Rain = 0
KLBW 121325Z 33001KT 16/12 A301 RMK A01 T01630116  RH  076%=      5-min Rain = 0
KLBW 121330Z 33001KT 17/12 A301 RMK A01 T01670117  RH  075%=      5-min Rain = 0
KLBW 121335Z 33000KT 18/11 A301 RMK A01 T01750110  RH  068%=      5-min Rain = 0
KLBW 121340Z 01000KT 18/11 A301 RMK A01 T01800107  RH  064%=      5-min Rain = 0
KLBW 121345Z 05001KT 18/11 A301 RMK A01 T01830114  RH  066%=      5-min Rain = 0
KLBW 121350Z 05001KT 19/11 A301 RMK A01 T01850110  RH  064%=      5-min Rain = 0
KLBW 121355Z 06001KT 19/11 A301 RMK A01 T01880112  RH  063%=      5-min Rain = 0
KLBW 121400Z 06001KT 19/11 A301 RMK A01 T01900112  RH  063%=      5-min Rain = 0
KLBW 121405Z 06000KT 19/11 A301 RMK A01 T01930112  RH  061%=      5-min Rain = 0
KLBW 121410Z 05000KT 20/11 A301 RMK A01 T01970109  RH  059%=      5-min Rain = 0
KLBW 121415Z 05000KT 20/11 A301 RMK A01 T02000112  RH  059%=      5-min Rain = 0
KLBW 121420Z 05000KT 20/11 A301 RMK A01 T02040111  RH  057%=      5-min Rain = 0
KLBW 121425Z 05000KT 21/11 A301 RMK A01 T02080109  RH  055%=      5-min Rain = 0
KLBW 121430Z 13000KT 22/11 A301 RMK A01 T02210111  RH  052%=      5-min Rain = 0
KLBW 121435Z 25001KT 23/11 A301 RMK A01 T02280107  RH  048%=      5-min Rain = 0
KLBW 121440Z 22001KT 22/11 A301 RMK A01 T02220106  RH  049%=      5-min Rain = 0
KLBW 121445Z 13001KT 23/11 A301 RMK A01 T02300112  RH  049%=      5-min Rain = 0
KLBW 121450Z 06001KT 23/11 A301 RMK A01 T02330113  RH  048%=      5-min Rain = 0
KLBW 121455Z 10000KT 23/11 A301 RMK A01 T02310111  RH  048%=      5-min Rain = 0
KLBW 121500Z 21000KT 24/10 A301 RMK A01 T02390104  RH  044%=      5-min Rain = 0
KLBW 121505Z 35000KT 24/10 A301 RMK A01 T02430104  RH  043%=      5-min Rain = 0
KLBW 121510Z 23001KT 25/10 A3009 RMK A01 T02450104  RH  042%=      5-min Rain = 0
KLBW 121515Z 21001KT 24/10 A3009 RMK A01 T02440104  RH  042%=      5-min Rain = 0
KLBW 121520Z 24001KT 25/10 A3009 RMK A01 T02470104  RH  042%=      5-min Rain = 0
KLBW 121525Z 28002KT 25/10 A301 RMK A01 T02460099  RH  041%=      5-min Rain = 0
KLBW 121530Z 33002KT 25/10 A301 RMK A01 T02480101  RH  041%=      5-min Rain = 0
KLBW 121535Z 34002KT 25/10 A3009 RMK A01 T02500101  RH  040%=      5-min Rain = 0
KLBW 121540Z 33002KT 25/10 A3009 RMK A01 T02500104  RH  041%=      5-min Rain = 0
KLBW 121545Z 28000KT 25/11 A301 RMK A01 T02540105  RH  040%=      5-min Rain = 0
KLBW 121550Z 22002KT 26/10 A301 RMK A01 T02620102  RH  038%=      5-min Rain = 0
KLBW 121555Z 21002KT 26/10 A3009 RMK A01 T02600097  RH  037%=      5-min Rain = 0
KLBW 121600Z 20001KT 26/10 A3009 RMK A01 T02620099  RH  037%=      5-min Rain = 0
KLBW 121605Z 28001KT 27/10 A3009 RMK A01 T02670103  RH  037%=      5-min Rain = 0
KLBW 121610Z 19002KT 27/10 A3009 RMK A01 T02700104  RH  037%=      5-min Rain = 0
KLBW 121615Z 25002KT 27/10 A3009 RMK A01 T02700101  RH  036%=      5-min Rain = 0
KLBW 121620Z 27003KT 27/10 A3009 RMK A01 T02680100  RH  036%=      5-min Rain = 0
KLBW 121625Z 23003KT 27/10 A3009 RMK A01 T02710100  RH  035%=      5-min Rain = 0
KLBW 121630Z 24002KT 27/10 A3009 RMK A01 T02730099  RH  035%=      5-min Rain = 0
KLBW 121635Z 26003G9KT 28/10 A3009 RMK A01 T02780102  RH  034%=      5-min Rain = 0
KLBW 121640Z 22003KT 28/10 A3008 RMK A01 T02830100  RH  033%=      5-min Rain = 0
KLBW 121645Z 23004KT 28/10 A3008 RMK A01 T02840101  RH  033%=      5-min Rain = 0
KLBW 121650Z 22004KT 29/10 A3008 RMK A01 T02850101  RH  033%=      5-min Rain = 0
KLBW 121655Z 21003KT 29/10 A3008 RMK A01 T02870101  RH  033%=      5-min Rain = 0
KLBW 121700Z 24004KT 29/10 A3008 RMK A01 T02880102  RH  032%=      5-min Rain = 0
KLBW 121705Z 26004KT 29/10 A3007 RMK A01 T02910101  RH  032%=      5-min Rain = 0
KLBW 121710Z 27006KT 29/10 A3007 RMK A01 T02920097  RH  031%=      5-min Rain = 0
KLBW 121715Z 30004KT 29/09 A3007 RMK A01 T02920094  RH  030%=      5-min Rain = 0
KLBW 121720Z 25005KT 30/10 A3007 RMK A01 T02960098  RH  030%=      5-min Rain = 0
KLBW 121725Z 24004KT 30/10 A3007 RMK A01 T02960095  RH  029%=      5-min Rain = 0
KLBW 121730Z 26005KT 30/10 A3006 RMK A01 T02980095  RH  029%=      5-min Rain = 0
KLBW 121735Z 28005KT 30/10 A3006 RMK A01 T03010099  RH  029%=      5-min Rain = 0
KLBW 121740Z 25004KT 30/10 A3006 RMK A01 T03040101  RH  029%=      5-min Rain = 0
KLBW 121745Z 25005KT 31/10 A3006 RMK A01 T03060098  RH  029%=      5-min Rain = 0
KLBW 121750Z 24005G10KT 31/10 A3006 RMK A01 T03090097  RH  028%=      5-min Rain = 0
KLBW 121755Z 29005KT 31/09 A3005 RMK A01 T03080088  RH  026%=      5-min Rain = 0
KLBW 121800Z 28007KT 31/09 A3005 RMK A01 T03090088  RH  026%=      5-min Rain = 0
KLBW 121805Z 28006G11KT 31/09 A3005 RMK A01 T03110087  RH  026%=      5-min Rain = 0
KLBW 121810Z 28005KT 31/09 A3005 RMK A01 T03120088  RH  026%=      5-min Rain = 0
KLBW 121815Z 30004G9KT 32/09 A3005 RMK A01 T03170085  RH  024%=      5-min Rain = 0
KLBW 121820Z 29007KT 32/09 A3004 RMK A01 T03200087  RH  024%=      5-min Rain = 0
KLBW 121825Z 30004KT 32/08 A3004 RMK A01 T03170082  RH  024%=      5-min Rain = 0
KLBW 121830Z 27005KT 32/08 A3004 RMK A01 T03200084  RH  024%=      5-min Rain = 0
KLBW 121835Z 30005KT 32/08 A3003 RMK A01 T03230083  RH  023%=      5-min Rain = 0
KLBW 121840Z 30006KT 32/08 A3003 RMK A01 T03210080  RH  023%=      5-min Rain = 0
KLBW 121845Z 27006KT 32/08 A3003 RMK A01 T03200081  RH  023%=      5-min Rain = 0
KLBW 121850Z 28004KT 32/08 A3003 RMK A01 T03180077  RH  023%=      5-min Rain = 0
KLBW 121855Z 30006KT 32/08 A3002 RMK A01 T03240081  RH  023%=      5-min Rain = 0
KLBW 121900Z 31005KT 33/08 A3002 RMK A01 T03250082  RH  023%=      5-min Rain = 0
KLBW 121905Z 32003KT 33/08 A3002 RMK A01 T03260079  RH  022%=      5-min Rain = 0
KLBW 121910Z 25006KT 33/08 A3001 RMK A01 T03280082  RH  022%=      5-min Rain = 0
KLBW 121915Z 27005KT 33/08 A3001 RMK A01 T03280079  RH  022%=      5-min Rain = 0
KLBW 121920Z 32005G11KT 33/07 A3001 RMK A01 T03310070  RH  020%=      5-min Rain = 0
KLBW 121925Z 34004KT 33/06 A3001 RMK A01 T03300055  RH  018%=      5-min Rain = 0
KLBW 121930Z 31007KT 33/07 A30 RMK A01 T03320066  RH  020%=      5-min Rain = 0
KLBW 121935Z 29003KT 34/06 A30 RMK A01 T03370061  RH  018%=      5-min Rain = 0
KLBW 121940Z 31006KT 34/07 A30 RMK A01 T03390071  RH  019%=      5-min Rain = 0
KLBW 121945Z 29007KT 34/07 A2999 RMK A01 T03370068  RH  019%=      5-min Rain = 0
KLBW 121950Z 31006G12KT 33/06 A2999 RMK A01 T03340064  RH  019%=      5-min Rain = 0
KLBW 121955Z 30004G9KT 34/07 A2999 RMK A01 T03350067  RH  019%=      5-min Rain = 0
KLBW 122000Z 27004G9KT 34/07 A2998 RMK A01 T03390069  RH  019%=      5-min Rain = 0
KLBW 122005Z 26006KT 34/07 A2998 RMK A01 T03410074  RH  020%=      5-min Rain = 0
KLBW 122010Z 29009KT 34/07 A2998 RMK A01 T03400074  RH  020%=      5-min Rain = 0
KLBW 122015Z 31005KT 34/07 A2998 RMK A01 T03410073  RH  020%=      5-min Rain = 0
KLBW 122020Z 34005G10KT 34/07 A2997 RMK A01 T03390070  RH  019%=      5-min Rain = 0
KLBW 122025Z 33006G11KT 34/07 A2997 RMK A01 T03400068  RH  019%=      5-min Rain = 0
KLBW 122030Z 29003KT 34/07 A2997 RMK A01 T03420067  RH  019%=      5-min Rain = 0
KLBW 122035Z 30001G6KT 35/06 A2997 RMK A01 T03450064  RH  018%=      5-min Rain = 0
KLBW 122040Z 27003KT 35/07 A2996 RMK A01 T03450068  RH  019%=      5-min Rain = 0
KLBW 122045Z 30005G11KT 34/07 A2996 RMK A01 T03440068  RH  019%=      5-min Rain = 0
KLBW 122050Z 31008KT 34/07 A2996 RMK A01 T03390068  RH  019%=      5-min Rain = 0
KLBW 122055Z 35006G11KT 34/06 A2996 RMK A01 T03410062  RH  018%=      5-min Rain = 0
KLBW 122100Z 00005G10KT 34/06 A2996 RMK A01 T03390058  RH  018%=      5-min Rain = 0
KLBW 122105Z 32003KT 35/06 A2995 RMK A01 T03460062  RH  018%=      5-min Rain = 0
KLBW 122110Z 31006G11KT 34/06 A2995 RMK A01 T03440063  RH  018%=      5-min Rain = 0
KLBW 122115Z 32007G12KT 34/07 A2995 RMK A01 T03420067  RH  019%=      5-min Rain = 0
KLBW 122120Z 33004KT 34/06 A2995 RMK A01 T03410063  RH  018%=      5-min Rain = 0
KLBW 122125Z 35003KT 35/06 A2995 RMK A01 T03450061  RH  018%=      5-min Rain = 0
KLBW 122130Z 33003KT 34/06 A2994 RMK A01 T03400058  RH  018%=      5-min Rain = 0
KLBW 122135Z 31007KT 34/07 A2994 RMK A01 T03440069  RH  019%=      5-min Rain = 0
KLBW 122140Z 34006G11KT 34/07 A2994 RMK A01 T03420066  RH  019%=      5-min Rain = 0
KLBW 122145Z 33002KT 34/06 A2994 RMK A01 T03420060  RH  018%=      5-min Rain = 0
KLBW 122150Z 31004G9KT 35/07 A2994 RMK A01 T03460070  RH  019%=      5-min Rain = 0
KLBW 122155Z 31003KT 35/06 A2994 RMK A01 T03460062  RH  018%=      5-min Rain = 0
KLBW 122200Z 30004G11KT 35/07 A2994 RMK A01 T03460067  RH  018%=      5-min Rain = 0
KLBW 122205Z 31003KT 34/06 A2993 RMK A01 T03430060  RH  018%=      5-min Rain = 0
KLBW 122210Z 28002KT 35/07 A2993 RMK A01 T03490066  RH  018%=      5-min Rain = 0
KLBW 122215Z 26001KT 35/06 A2993 RMK A01 T03520063  RH  017%=      5-min Rain = 0
KLBW 122220Z 31003KT 35/06 A2993 RMK A01 T03480062  RH  017%=      5-min Rain = 0
KLBW 122225Z 33003KT 34/06 A2993 RMK A01 T03410062  RH  018%=      5-min Rain = 0
KLBW 122230Z 32005KT 34/07 A2993 RMK A01 T03350072  RH  020%=      5-min Rain = 0
KLBW 122235Z 30006KT 34/07 A2993 RMK A01 T03380067  RH  019%=      5-min Rain = 0
KLBW 122240Z 30006KT 34/07 A2993 RMK A01 T03410072  RH  020%=      5-min Rain = 0
KLBW 122245Z 30007KT 34/07 A2993 RMK A01 T03390068  RH  019%=      5-min Rain = 0
KLBW 122250Z 30005KT 34/07 A2993 RMK A01 T03390066  RH  019%=      5-min Rain = 0
KLBW 122255Z 31004KT 34/07 A2992 RMK A01 T03390067  RH  019%=      5-min Rain = 0
KLBW 122300Z 34003KT 34/06 A2992 RMK A01 T03390060  RH  018%=      5-min Rain = 0
KLBW 122305Z 03002KT 34/06 A2992 RMK A01 T03390058  RH  018%=      5-min Rain = 0
KLBW 122310Z 14001KT 34/06 A2992 RMK A01 T03400058  RH  018%=      5-min Rain = 0
KLBW 122315Z 28002KT 34/07 A2992 RMK A01 T03440066  RH  018%=      5-min Rain = 0
KLBW 122320Z 30004KT 34/07 A2992 RMK A01 T03400072  RH  020%=      5-min Rain = 0
KLBW 122325Z 33005KT 34/07 A2992 RMK A01 T03350066  RH  019%=      5-min Rain = 0
KLBW 122330Z 19001KT 34/06 A2992 RMK A01 T03360061  RH  019%=      5-min Rain = 0
KLBW 122335Z 30002KT 34/07 A2992 RMK A01 T03370074  RH  020%=      5-min Rain = 0
KLBW 122340Z 29005KT 33/08 A2992 RMK A01 T03330075  RH  021%=      5-min Rain = 0
KLBW 122345Z 34004KT 33/07 A2992 RMK A01 T03300069  RH  020%=      5-min Rain = 0
KLBW 122350Z 33004KT 33/07 A2992 RMK A01 T03300068  RH  020%=      5-min Rain = 0
KLBW 122355Z 31003KT 33/07 A2991 RMK A01 T03270074  RH  021%=      5-min Rain = 0
KLBW 130000Z 29005KT 32/07 A2991 RMK A01 T03240071  RH  021%=      5-min Rain = 0
KLBW 130005Z 32006KT 32/07 A2991 RMK A01 T03200073  RH  022%=      5-min Rain = 0
KLBW 130010Z 34004KT 32/08 A2991 RMK A01 T03170077  RH  023%=      5-min Rain = 0
KLBW 130015Z 36003KT 32/07 A2991 RMK A01 T03190071  RH  022%=      5-min Rain = 0
KLBW 130020Z 33002KT 32/09 A2991 RMK A01 T03180085  RH  024%=      5-min Rain = 0
KLBW 130025Z 31004KT 31/09 A2991 RMK A01 T03110086  RH  025%=      5-min Rain = 0
KLBW 130030Z 28005KT 31/08 A2991 RMK A01 T03070082  RH  025%=      5-min Rain = 0
KLBW 130035Z 28006KT 30/09 A2991 RMK A01 T03000085  RH  027%=      5-min Rain = 0
KLBW 130040Z 28006KT 29/09 A2991 RMK A01 T02940086  RH  028%=      5-min Rain = 0
KLBW 130045Z 29007KT 29/08 A2991 RMK A01 T02920084  RH  028%=      5-min Rain = 0
KLBW 130050Z 29007KT 29/08 A2991 RMK A01 T02920082  RH  028%=      5-min Rain = 0
KLBW 130055Z 29006KT 29/08 A2991 RMK A01 T02910079  RH  027%=      5-min Rain = 0
KLBW 130100Z 29006KT 29/08 A2991 RMK A01 T02870081  RH  028%=      5-min Rain = 0
KLBW 130105Z 30006KT 29/08 A2991 RMK A01 T02850081  RH  028%=      5-min Rain = 0
KLBW 130110Z 30005KT 28/08 A2992 RMK A01 T02820082  RH  029%=      5-min Rain = 0
KLBW 130115Z 30005KT 28/09 A2992 RMK A01 T02750086  RH  031%=      5-min Rain = 0
KLBW 130120Z 30005KT 27/09 A2992 RMK A01 T02730087  RH  032%=      5-min Rain = 0
KLBW 130125Z 33004KT 27/09 A2992 RMK A01 T02670092  RH  034%=      5-min Rain = 0
KLBW 130130Z 32005KT 26/10 A2992 RMK A01 T02620096  RH  036%=      5-min Rain = 0
KLBW 130135Z 32004KT 26/10 A2992 RMK A01 T02560097  RH  038%=      5-min Rain = 0
KLBW 130140Z 32005KT 25/10 A2992 RMK A01 T02520097  RH  039%=      5-min Rain = 0
KLBW 130145Z 31004KT 25/09 A2992 RMK A01 T02490094  RH  038%=      5-min Rain = 0
KLBW 130150Z 30005KT 25/09 A2993 RMK A01 T02490091  RH  038%=      5-min Rain = 0
KLBW 130155Z 35005KT 25/09 A2993 RMK A01 T02510086  RH  036%=      5-min Rain = 0
KLBW 130200Z 03006KT 26/09 A2993 RMK A01 T02600087  RH  035%=      5-min Rain = 0
KLBW 130205Z 03008KT 27/10 A2993 RMK A01 T02690095  RH  035%=      5-min Rain = 0
KLBW 130210Z 06009KT 27/10 A2993 RMK A01 T02680096  RH  035%=      5-min Rain = 0
KLBW 130215Z 06009KT 27/10 A2994 RMK A01 T02720097  RH  035%=      5-min Rain = 0
KLBW 130220Z 07010KT 27/10 A2994 RMK A01 T02710098  RH  035%=      5-min Rain = 0
KLBW 130225Z 09009G16KT 27/10 A2994 RMK A01 T02710098  RH  035%=      5-min Rain = 0
KLBW 130230Z 09010G15KT 27/10 A2994 RMK A01 T02690099  RH  035%=      5-min Rain = 0
KLBW 130235Z 09009KT 27/10 A2994 RMK A01 T02660100  RH  036%=      5-min Rain = 0
KLBW 130240Z 09009KT 26/10 A2994 RMK A01 T02640100  RH  037%=      5-min Rain = 0
KLBW 130245Z 10008KT 26/10 A2995 RMK A01 T02610100  RH  038%=      5-min Rain = 0
KLBW 130250Z 10008G13KT 26/10 A2995 RMK A01 T02610100  RH  037%=      5-min Rain = 0
KLBW 130255Z 10008KT 26/10 A2995 RMK A01 T02610099  RH  037%=      5-min Rain = 0
KLBW 130300Z 10006KT 26/10 A2995 RMK A01 T02590100  RH  038%=      5-min Rain = 0
KLBW 130305Z 10007KT 26/10 A2995 RMK A01 T02560100  RH  038%=      5-min Rain = 0
KLBW 130310Z 09007KT 26/10 A2996 RMK A01 T02560100  RH  039%=      5-min Rain = 0
KLBW 130315Z 10006KT 25/10 A2996 RMK A01 T02520101  RH  040%=      5-min Rain = 0
KLBW 130320Z 10007KT 25/10 A2996 RMK A01 T02510101  RH  040%=      5-min Rain = 0
KLBW 130325Z 09007KT 25/10 A2996 RMK A01 T02500100  RH  040%=      5-min Rain = 0
KLBW 130330Z 10007KT 25/10 A2996 RMK A01 T02480100  RH  040%=      5-min Rain = 0
KLBW 130335Z 10007KT 25/10 A2996 RMK A01 T02480099  RH  040%=      5-min Rain = 0
KLBW 130340Z 10007KT 25/10 A2996 RMK A01 T02470099  RH  041%=      5-min Rain = 0
KLBW 130345Z 10007KT 25/10 A2996 RMK A01 T02450100  RH  041%=      5-min Rain = 0
KLBW 130350Z 11008KT 25/10 A2996 RMK A01 T02460098  RH  040%=      5-min Rain = 0
KLBW 130355Z 10009KT 25/10 A2996 RMK A01 T02460099  RH  041%=      5-min Rain = 0
KLBW 130400Z 10008KT 25/10 A2996 RMK A01 T02460098  RH  040%=      5-min Rain = 0
KLBW 130405Z 10007KT 24/10 A2996 RMK A01 T02430099  RH  042%=      5-min Rain = 0
KLBW 130410Z 10008KT 24/10 A2996 RMK A01 T02400099  RH  042%=      5-min Rain = 0
KLBW 130415Z 09008KT 24/10 A2996 RMK A01 T02410099  RH  042%=      5-min Rain = 0
KLBW 130420Z 10008KT 24/10 A2996 RMK A01 T02390099  RH  042%=      5-min Rain = 0
KLBW 130425Z 10008KT 24/10 A2996 RMK A01 T02390099  RH  042%=      5-min Rain = 0
KLBW 130430Z 09006KT 24/10 A2996 RMK A01 T02350100  RH  044%=      5-min Rain = 0
KLBW 130435Z 09007G13KT 23/10 A2996 RMK A01 T02320100  RH  044%=      5-min Rain = 0
KLBW 130440Z 09006KT 23/10 A2996 RMK A01 T02310100  RH  045%=      5-min Rain = 0
KLBW 130445Z 10006KT 23/10 A2996 RMK A01 T02300099  RH  045%=      5-min Rain = 0
KLBW 130450Z 10005KT 23/10 A2996 RMK A01 T02270099  RH  046%=      5-min Rain = 0
KLBW 130455Z 10005KT 23/10 A2996 RMK A01 T02250099  RH  046%=      5-min Rain = 0

Page generated in 0.0146 seconds.